createdAt,value
2023-02-03T00:03:45.948Z,6.99
2023-02-03T00:08:52.060Z,6.27
2023-02-03T00:13:58.283Z,5.56
2023-02-03T00:19:04.328Z,4.82
2023-02-03T00:24:10.559Z,4.88
2023-02-03T00:29:16.622Z,4.13
2023-02-03T00:34:22.968Z,3.78
2023-02-03T00:39:29.031Z,4.63
2023-02-03T00:44:35.346Z,4.23
2023-02-03T00:49:41.418Z,5.15
2023-02-03T00:54:47.708Z,4.92
2023-02-03T00:59:53.753Z,4.95
2023-02-03T01:04:59.939Z,3.72
2023-02-03T01:10:06.136Z,4.50
2023-02-03T01:15:12.329Z,4.10
2023-02-03T01:20:18.461Z,3.55
2023-02-03T01:25:29.958Z,3.73
2023-02-03T01:30:26.755Z,4.81
2023-02-03T01:35:32.737Z,6.29
2023-02-03T01:40:38.907Z,4.11
2023-02-03T01:45:45.183Z,3.39
2023-02-03T01:50:51.201Z,3.40
2023-02-03T01:55:57.349Z,3.35
2023-02-03T02:01:03.579Z,3.81
2023-02-03T02:06:09.734Z,4.25
2023-02-03T02:11:15.760Z,3.92
2023-02-03T02:16:22.348Z,3.07
2023-02-03T02:21:28.345Z,3.68
2023-02-03T02:26:34.553Z,2.84
2023-02-03T02:31:40.800Z,2.67
2023-02-03T02:36:46.928Z,2.43
2023-02-03T02:41:53.126Z,2.31
2023-02-03T02:46:59.338Z,3.12
2023-02-03T02:52:06.211Z,4.22
2023-02-03T02:57:12.793Z,3.30
2023-02-03T03:02:18.872Z,4.26
2023-02-03T03:07:24.997Z,4.25
2023-02-03T03:12:31.055Z,4.44
2023-02-03T03:17:37.229Z,3.14
2023-02-03T03:22:43.326Z,3.64
2023-02-03T03:27:49.512Z,3.12
2023-02-03T03:32:55.533Z,3.32
2023-02-03T03:38:01.709Z,3.53
2023-02-03T03:43:07.778Z,4.53
2023-02-03T03:48:13.956Z,3.61
2023-02-03T03:53:20.209Z,4.19
2023-02-03T03:58:26.274Z,4.32
2023-02-03T04:03:32.434Z,3.34
2023-02-03T04:08:38.639Z,3.62
2023-02-03T04:13:44.823Z,3.40
2023-02-03T04:18:51.108Z,4.79
2023-02-03T04:23:57.186Z,3.66
2023-02-03T04:29:03.371Z,4.81
2023-02-03T04:34:09.426Z,6.42
2023-02-03T04:39:15.785Z,4.08
2023-02-03T04:44:21.868Z,4.59
2023-02-03T04:49:28.038Z,3.50
2023-02-03T04:54:34.126Z,5.11
2023-02-03T04:59:40.463Z,5.37
2023-02-03T05:04:46.643Z,4.79
2023-02-03T05:09:53.545Z,4.63
2023-02-03T05:14:59.714Z,3.82
2023-02-03T05:20:06.000Z,3.64
2023-02-03T05:25:12.131Z,4.04
2023-02-03T05:30:18.395Z,4.80
2023-02-03T05:35:24.474Z,5.97
2023-02-03T05:40:30.669Z,4.95
2023-02-03T05:45:36.769Z,7.04
2023-02-03T05:50:43.123Z,5.43
2023-02-03T05:55:49.218Z,4.91
2023-02-03T06:00:55.632Z,5.27
2023-02-03T06:06:01.738Z,5.23
2023-02-03T06:11:08.011Z,6.20
2023-02-03T06:16:14.082Z,3.71
2023-02-03T06:21:20.425Z,4.87
2023-02-03T06:26:26.587Z,5.07
2023-02-03T06:31:32.988Z,4.75
2023-02-03T06:36:39.009Z,5.76
2023-02-03T06:41:45.286Z,6.29
2023-02-03T06:46:51.418Z,6.10
2023-02-03T06:51:57.577Z,5.84
2023-02-03T06:57:04.063Z,5.65
2023-02-03T07:03:01.775Z,6.40
2023-02-03T07:08:07.832Z,5.58
2023-02-03T07:13:14.004Z,5.19
2023-02-03T07:18:36.015Z,6.07
2023-02-03T07:23:25.898Z,6.49
2023-02-03T07:28:31.967Z,6.59
2023-02-03T07:33:38.311Z,5.81
2023-02-03T07:38:46.346Z,7.68
2023-02-03T07:43:52.535Z,6.15
2023-02-03T07:48:58.620Z,8.29
2023-02-03T07:54:04.811Z,6.33
2023-02-03T07:59:10.881Z,8.11
2023-02-03T08:04:17.089Z,8.45
2023-02-03T08:09:23.148Z,6.48
2023-02-03T08:14:29.409Z,8.23
2023-02-03T08:19:35.527Z,8.25
2023-02-03T08:24:41.695Z,9.28
2023-02-03T08:29:47.771Z,8.37
2023-02-03T08:34:53.964Z,9.60
2023-02-03T08:40:00.182Z,9.69
2023-02-03T08:45:06.372Z,10.40
2023-02-03T08:50:12.540Z,10.21
2023-02-03T08:55:18.765Z,11.08
2023-02-03T09:00:25.080Z,9.78
2023-02-03T09:05:31.036Z,14.07
2023-02-03T09:10:37.111Z,9.28
2023-02-03T09:15:43.314Z,6.64
2023-02-03T09:20:49.387Z,10.26
2023-02-03T09:25:55.651Z,11.02
2023-02-03T09:31:01.753Z,10.28
2023-02-03T09:36:07.906Z,13.20
2023-02-03T09:41:14.131Z,12.02
2023-02-03T09:46:20.278Z,12.75
2023-02-03T09:51:26.397Z,15.97
2023-02-03T09:56:32.523Z,12.94
2023-02-03T10:01:38.642Z,15.95
2023-02-03T10:06:44.802Z,16.07
2023-02-03T10:11:50.831Z,15.26
2023-02-03T10:16:57.033Z,15.89
2023-02-03T10:22:03.308Z,16.23
2023-02-03T10:27:09.501Z,14.00
2023-02-03T10:32:15.701Z,15.58
2023-02-03T10:37:21.783Z,17.02
2023-02-03T10:42:27.842Z,12.60
2023-02-03T10:47:34.057Z,16.69
2023-02-03T10:52:40.168Z,16.45
2023-02-03T10:57:46.379Z,16.06
2023-02-03T11:02:52.535Z,15.68
2023-02-03T11:07:58.716Z,20.21
2023-02-03T11:13:04.780Z,15.77
2023-02-03T11:18:11.008Z,16.42
2023-02-03T11:23:17.127Z,14.76
2023-02-03T11:28:23.366Z,15.99
2023-02-03T11:33:29.462Z,18.04
2023-02-03T11:38:35.576Z,16.95
2023-02-03T11:43:41.709Z,15.71
2023-02-03T11:48:47.983Z,15.57
2023-02-03T11:53:57.197Z,15.84
2023-02-03T11:58:59.852Z,12.77
2023-02-03T12:04:06.026Z,16.64
2023-02-03T12:09:12.208Z,12.70
2023-02-03T12:14:18.357Z,13.86
2023-02-03T12:19:24.532Z,12.73
2023-02-03T12:24:30.690Z,12.61
2023-02-03T12:29:36.880Z,12.86
2023-02-03T12:34:42.953Z,12.37
2023-02-03T12:39:49.265Z,12.45
2023-02-03T12:44:55.412Z,13.02
2023-02-03T12:50:01.589Z,17.12
2023-02-03T12:55:07.689Z,14.91
2023-02-03T13:00:13.941Z,14.97
2023-02-03T13:05:20.005Z,17.39
2023-02-03T13:10:26.531Z,15.40
2023-02-03T13:15:31.854Z,14.83
2023-02-03T13:20:38.009Z,14.27
2023-02-03T13:25:44.076Z,12.47
2023-02-03T13:30:50.370Z,11.79
2023-02-03T13:35:56.427Z,11.34
2023-02-03T13:41:02.590Z,12.34
2023-02-03T13:46:09.277Z,12.34
2023-02-03T13:51:14.337Z,11.35
2023-02-03T13:56:20.487Z,10.69
2023-02-03T14:01:26.686Z,13.10
2023-02-03T14:06:32.766Z,13.26
2023-02-03T14:11:38.962Z,16.23
2023-02-03T14:16:45.063Z,12.24
2023-02-03T14:21:51.224Z,12.69
2023-02-03T14:26:57.323Z,16.21
2023-02-03T14:32:03.527Z,13.65
2023-02-03T14:37:09.604Z,15.04
2023-02-03T14:42:15.869Z,11.65
2023-02-03T14:47:21.929Z,13.93
2023-02-03T14:52:28.213Z,16.25
2023-02-03T14:57:34.501Z,17.08
2023-02-03T15:02:40.714Z,15.05
2023-02-03T15:07:46.823Z,15.20
2023-02-03T15:12:53.136Z,19.69
2023-02-03T15:17:59.421Z,17.55
2023-02-03T15:23:05.575Z,22.48
2023-02-03T15:28:11.725Z,19.66
2023-02-03T15:33:17.823Z,17.00
2023-02-03T15:38:23.982Z,19.26
2023-02-03T15:43:30.288Z,16.95
2023-02-03T15:48:36.355Z,15.28
2023-02-03T15:53:47.641Z,16.30
2023-02-03T15:58:48.188Z,15.72
2023-02-03T16:03:54.366Z,17.59
2023-02-03T16:09:00.833Z,16.29
2023-02-03T16:14:09.127Z,17.24
2023-02-03T16:19:15.237Z,18.10
2023-02-03T16:24:21.449Z,18.33
2023-02-03T16:29:27.526Z,18.68
2023-02-03T16:34:33.671Z,17.61
2023-02-03T16:39:39.757Z,14.53
2023-02-03T16:44:45.925Z,17.27
2023-02-03T16:49:52.034Z,19.20
2023-02-03T16:54:58.324Z,14.47
2023-02-03T17:00:04.395Z,17.30
2023-02-03T17:05:10.610Z,16.53
2023-02-03T17:10:16.768Z,16.90
2023-02-03T17:15:22.920Z,16.18
2023-02-03T17:20:29.127Z,17.89
2023-02-03T17:25:35.329Z,19.61
2023-02-03T17:30:41.498Z,17.16
2023-02-03T17:35:47.654Z,15.97
2023-02-03T17:56:13.778Z,19.91
2023-02-03T18:01:20.017Z,19.26
2023-02-03T18:06:26.070Z,17.40
2023-02-03T18:11:32.181Z,17.13
2023-02-03T18:16:38.509Z,16.71
2023-02-03T18:21:44.553Z,14.93
2023-02-03T18:26:50.821Z,16.74
2023-02-03T18:31:56.909Z,17.02
2023-02-03T18:37:03.224Z,16.84
2023-02-03T18:42:09.344Z,15.74
2023-02-03T18:47:15.566Z,17.22
2023-02-03T18:52:21.681Z,12.43
2023-02-03T18:57:27.934Z,14.51
2023-02-03T19:02:35.121Z,14.59
2023-02-03T19:07:41.565Z,16.43
2023-02-03T19:12:47.651Z,14.20
2023-02-03T19:17:53.926Z,15.66
2023-02-03T19:23:00.010Z,16.06
2023-02-03T19:28:06.879Z,14.54
2023-02-03T19:33:11.774Z,15.85
2023-02-03T19:38:17.903Z,18.50
2023-02-03T19:43:24.067Z,16.67
2023-02-03T19:48:30.246Z,19.07
2023-02-03T19:53:36.350Z,18.83
2023-02-03T19:58:42.517Z,16.16
2023-02-03T20:03:48.582Z,18.09
2023-02-03T20:08:54.865Z,18.40
2023-02-03T20:14:00.940Z,19.26
2023-02-03T20:19:07.205Z,22.07
2023-02-03T20:24:13.297Z,17.61
2023-02-03T20:29:19.624Z,20.80
2023-02-03T20:34:25.708Z,18.72
2023-02-03T20:39:32.107Z,14.77
2023-02-03T20:44:38.176Z,18.83
2023-02-03T20:49:44.758Z,21.22
2023-02-03T20:54:50.976Z,18.30
2023-02-03T20:59:57.182Z,19.40
2023-02-03T21:05:03.271Z,15.28
2023-02-03T21:10:09.496Z,20.35
2023-02-03T21:15:15.581Z,16.43
2023-02-03T21:20:21.903Z,16.64
2023-02-03T21:25:28.456Z,18.56
2023-02-03T21:30:34.851Z,18.63
2023-02-03T21:35:40.802Z,15.68
2023-02-03T21:40:46.974Z,16.89
2023-02-03T21:45:53.257Z,19.39
2023-02-03T21:50:59.425Z,16.54
2023-02-03T21:56:05.528Z,18.15
2023-02-03T22:01:11.868Z,21.29
2023-02-03T22:06:18.005Z,18.45
2023-02-03T22:11:32.619Z,17.35
2023-02-03T22:16:38.793Z,20.97
2023-02-03T22:21:45.016Z,18.60
2023-02-03T22:26:52.137Z,15.23
2023-02-03T22:31:58.551Z,17.81
2023-02-03T22:37:04.373Z,17.53
2023-02-03T22:42:10.534Z,18.56
2023-02-03T22:47:16.812Z,18.80
2023-02-03T22:52:22.977Z,20.74
2023-02-03T22:57:29.083Z,21.61
2023-02-03T23:02:35.261Z,19.06
2023-02-03T23:07:41.368Z,17.57
2023-02-03T23:12:47.541Z,12.75
2023-02-03T23:17:53.618Z,13.13
2023-02-03T23:22:59.838Z,14.14
2023-02-03T23:28:06.024Z,13.06
2023-02-03T23:33:12.172Z,10.30
2023-02-03T23:38:18.292Z,8.91
2023-02-03T23:43:24.497Z,5.75
2023-02-03T23:48:30.572Z,7.63
2023-02-03T23:53:36.892Z,5.01
2023-02-03T23:58:43.006Z,5.27
